Time;durP1;ratioP1;P1;durP2;ratioP2;P2;SDS_P1;SDS_P2;PMS_P1;PMS_P2;Temp;Humidity;BMP_temperature;BMP_pressure;BME280_temperature;BME280_humidity;BME280_pressure;Samples;Min_cycle;Max_cycle;Signal;HPM_P1;HPM_P2
2023/12/09 00:02:15;;;;;;;128.57;49.27;;;6.80;99.90;;;;;;5095281;28;20405;-88
2023/12/09 00:04:41;;;;;;;123.90;46.65;;;6.70;99.90;;;;;;5077428;28;20500;-88
2023/12/09 00:07:07;;;;;;;122.30;45.87;;;6.80;99.90;;;;;;5109864;28;20092;-88
2023/12/09 00:09:33;;;;;;;116.10;48.50;;;6.80;99.90;;;;;;5077541;28;20563;-88
2023/12/09 00:11:58;;;;;;;128.97;46.73;;;7.00;99.90;;;;;;5112445;28;20052;-87
2023/12/09 00:14:24;;;;;;;119.53;46.53;;;7.00;99.90;;;;;;5094474;28;20040;-88
2023/12/09 00:16:52;;;;;;;120.47;44.63;;;6.80;99.90;;;;;;5094296;28;20155;-88
2023/12/09 00:19:18;;;;;;;112.63;45.80;;;6.80;99.90;;;;;;5078042;28;20048;-87
2023/12/09 00:21:44;;;;;;;122.63;46.17;;;6.90;99.90;;;;;;5111059;28;20070;-88
2023/12/09 00:24:10;;;;;;;127.30;47.67;;;6.90;99.90;;;;;;5095076;28;20051;-87
2023/12/09 00:26:36;;;;;;;109.27;42.03;;;6.80;99.90;;;;;;5092591;28;20304;-88
2023/12/09 00:29:02;;;;;;;101.15;42.03;;;6.90;99.90;;;;;;5077765;28;20071;-88
2023/12/09 00:31:27;;;;;;;118.00;43.67;;;6.90;99.90;;;;;;5077943;28;20036;-87
2023/12/09 00:33:53;;;;;;;108.97;41.80;;;6.90;99.90;;;;;;5094272;28;20055;-87
2023/12/09 00:36:19;;;;;;;101.87;41.70;;;6.90;99.90;;;;;;5111642;28;20413;-87
2023/12/09 00:38:44;;;;;;;120.60;46.20;;;6.90;99.90;;;;;;5111150;28;20044;-88
2023/12/09 00:41:10;;;;;;;112.50;42.50;;;6.90;99.90;;;;;;5094456;28;20440;-87
2023/12/09 00:43:36;;;;;;;103.50;40.87;;;6.90;99.90;;;;;;5094128;28;20071;-88
2023/12/09 00:46:02;;;;;;;97.57;40.87;;;6.90;99.90;;;;;;5061608;28;20086;-88
2023/12/09 00:48:27;;;;;;;110.13;42.20;;;6.90;99.90;;;;;;5074302;28;20044;-88
2023/12/09 00:50:53;;;;;;;102.93;38.17;;;6.90;99.90;;;;;;5040533;28;20489;-88
2023/12/09 00:53:19;;;;;;;105.40;42.60;;;6.90;99.90;;;;;;5090749;28;20447;-87
2023/12/09 00:55:45;;;;;;;106.50;39.53;;;6.90;99.90;;;;;;5073609;28;20127;-88
2023/12/09 00:58:10;;;;;;;109.07;39.97;;;6.90;99.90;;;;;;5074091;28;20400;-88
2023/12/09 01:00:38;;;;;;;95.63;39.63;;;6.90;99.90;;;;;;5057066;28;20127;-89
2023/12/09 01:03:04;;;;;;;100.10;38.13;;;7.00;99.90;;;;;;5090776;28;20052;-88
2023/12/09 01:05:30;;;;;;;92.13;39.53;;;7.00;99.90;;;;;;5087832;28;20083;-87
2023/12/09 01:07:56;;;;;;;90.22;36.80;;;6.90;99.90;;;;;;5073379;28;20053;-87
2023/12/09 01:10:21;;;;;;;92.40;39.43;;;7.00;99.90;;;;;;5107215;28;20135;-87
2023/12/09 01:12:47;;;;;;;87.43;36.67;;;7.00;99.90;;;;;;5107019;28;20052;-88
2023/12/09 01:15:14;;;;;;;88.17;34.83;;;7.00;99.90;;;;;;5107488;28;20429;-87
2023/12/09 01:17:39;;;;;;;82.40;34.67;;;7.00;99.90;;;;;;5077756;28;20044;-87
2023/12/09 01:20:05;;;;;;;80.83;36.30;;;7.10;99.90;;;;;;5110623;27;20503;-87
2023/12/09 01:22:31;;;;;;;84.93;35.85;;;7.10;99.90;;;;;;5060385;28;20048;-87
2023/12/09 01:24:57;;;;;;;96.73;36.43;;;7.00;99.90;;;;;;5074862;28;20533;-88
2023/12/09 01:27:25;;;;;;;81.77;36.80;;;7.00;99.90;;;;;;5093312;28;20040;-87
2023/12/09 01:29:50;;;;;;;83.13;34.88;;;7.10;99.90;;;;;;5076599;28;20370;-88
2023/12/09 01:32:16;;;;;;;86.03;33.00;;;7.10;99.90;;;;;;5110629;28;20093;-88
2023/12/09 01:34:42;;;;;;;87.77;36.67;;;7.00;99.90;;;;;;5093063;28;20044;-88
2023/12/09 01:37:08;;;;;;;84.53;32.83;;;7.10;99.90;;;;;;5093246;28;20048;-88
2023/12/09 01:39:33;;;;;;;78.37;34.43;;;7.10;99.90;;;;;;5093130;28;20126;-87
2023/12/09 01:42:00;;;;;;;77.37;33.60;;;7.10;99.90;;;;;;5126768;27;20910;-87
2023/12/09 01:44:26;;;;;;;84.97;33.67;;;7.10;99.90;;;;;;5092764;28;20066;-87
2023/12/09 01:46:52;;;;;;;74.40;33.73;;;7.10;99.90;;;;;;5109349;28;20036;-88
2023/12/09 01:49:20;;;;;;;83.88;34.95;;;7.10;99.90;;;;;;5110351;28;20044;-87
2023/12/09 01:51:46;;;;;;;66.00;31.23;;;7.10;99.90;;;;;;5092758;28;20048;-88
2023/12/09 01:54:12;;;;;;;72.03;32.90;;;7.10;99.90;;;;;;5110261;28;20044;-87
2023/12/09 01:56:38;;;;;;;68.68;34.20;;;7.10;99.90;;;;;;5076246;28;20196;-88
2023/12/09 01:59:04;;;;;;;87.05;35.20;;;7.10;99.90;;;;;;5073437;28;20508;-88
2023/12/09 02:01:31;;;;;;;82.32;34.97;;;7.20;99.90;;;;;;5056062;28;20102;-88
2023/12/09 02:03:58;;;;;;;78.88;33.83;;;7.10;99.90;;;;;;5092379;28;20044;-88
2023/12/09 02:06:24;;;;;;;69.25;31.65;;;7.20;99.90;;;;;;5075382;28;20062;-87
2023/12/09 02:08:50;;;;;;;75.45;33.67;;;7.10;99.90;;;;;;5092441;28;20054;-88
2023/12/09 02:11:59;;;;;;;71.20;31.03;;;7.10;99.90;;;;;;5109853;28;20048;-87
2023/12/09 02:14:38;;;;;;;71.97;31.60;;;7.20;99.90;;;;;;5006794;28;20414;-88
2023/12/09 02:17:18;;;;;;;72.88;30.25;;;7.10;99.90;;;;;;5099910;28;20129;-88
2023/12/09 02:19:44;;;;;;;70.15;31.88;;;7.20;99.90;;;;;;5096129;28;20051;-88
2023/12/09 02:22:10;;;;;;;66.55;32.08;;;7.10;99.90;;;;;;5079869;28;20075;-88
2023/12/09 02:24:39;;;;;;;73.87;34.23;;;7.10;99.90;;;;;;5075371;28;20075;-88
2023/12/09 02:27:12;;;;;;;64.20;31.42;;;7.10;99.90;;;;;;5091636;28;20125;-88
2023/12/09 02:30:14;;;;;;;69.47;32.28;;;7.20;99.90;;;;;;5075816;28;20071;-88
2023/12/09 02:32:40;;;;;;;78.75;34.50;;;7.10;99.90;;;;;;5092360;28;20486;-88
2023/12/09 02:35:07;;;;;;;;;;;7.10;99.90;;;;;;5075456;28;20071;-88
2023/12/09 02:37:34;;;;;;;72.72;33.25;;;7.10;99.90;;;;;;5058265;28;19921;-88
2023/12/09 02:40:02;;;;;;;73.03;31.98;;;7.10;99.90;;;;;;5071476;28;20080;-88
2023/12/09 02:42:28;;;;;;;69.40;31.90;;;7.00;99.90;;;;;;5106077;27;20053;-88
2023/12/09 02:44:55;;;;;;;73.97;35.55;;;7.10;99.90;;;;;;5088488;28;20055;-88
2023/12/09 02:47:21;;;;;;;67.90;31.13;;;7.10;99.90;;;;;;5071373;28;20506;-88
2023/12/09 02:49:47;;;;;;;67.37;30.07;;;6.30;99.90;;;;;;5095245;28;20151;-88
2023/12/09 02:52:12;;;;;;;60.43;28.30;;;7.10;99.90;;;;;;5105143;28;20044;-88
2023/12/09 02:54:38;;;;;;;60.10;30.80;;;7.20;99.90;;;;;;5071904;28;20390;-87
2023/12/09 02:57:07;;;;;;;63.97;27.47;;;7.10;99.90;;;;;;5090858;28;20098;-88
2023/12/09 02:59:32;;;;;;;61.45;30.25;;;7.10;99.90;;;;;;5090578;28;20130;-88
2023/12/09 03:01:58;;;;;;;63.13;31.17;;;7.10;99.90;;;;;;5100859;28;20463;-88
2023/12/09 03:04:24;;;;;;;63.27;30.00;;;7.20;99.90;;;;;;5092184;28;20051;-87
2023/12/09 03:06:50;;;;;;;70.35;29.90;;;7.20;99.90;;;;;;5074656;28;20098;-87
2023/12/09 03:09:16;;;;;;;63.50;28.57;;;7.20;99.90;;;;;;5057928;28;20108;-88
2023/12/09 03:11:42;;;;;;;57.20;26.50;;;7.10;99.90;;;;;;5058489;28;20048;-88
2023/12/09 03:14:07;;;;;;;57.33;27.23;;;7.20;99.90;;;;;;5074447;28;20040;-88
2023/12/09 03:16:36;;;;;;;58.13;27.90;;;7.10;99.90;;;;;;5045181;28;20036;-88
2023/12/09 03:19:02;;;;;;;57.05;28.50;;;7.20;99.90;;;;;;5057231;28;20049;-88
2023/12/09 03:21:28;;;;;;;53.87;27.03;;;7.20;99.90;;;;;;5091938;28;20443;-88
2023/12/09 03:23:53;;;;;;;61.40;27.77;;;7.20;99.90;;;;;;5075040;28;20097;-88
2023/12/09 03:26:22;;;;;;;63.97;26.40;;;7.20;99.90;;;;;;5091160;28;20051;-88
2023/12/09 03:28:48;;;;;;;52.40;24.50;;;7.10;99.90;;;;;;5071708;28;20543;-88
2023/12/09 03:31:15;;;;;;;65.33;28.00;;;7.20;99.90;;;;;;5087510;28;20045;-88
2023/12/09 03:33:42;;;;;;;58.13;25.98;;;7.10;99.90;;;;;;5055742;28;20044;-88
2023/12/09 03:36:09;;;;;;;57.85;24.10;;;7.10;99.90;;;;;;5075337;28;20048;-87
2023/12/09 03:38:35;;;;;;;43.47;24.75;;;7.10;99.90;;;;;;5075531;28;20127;-88
2023/12/09 03:41:05;;;;;;;53.75;23.25;;;7.10;99.90;;;;;;5075063;28;20198;-88
2023/12/09 03:43:31;;;;;;;48.85;25.60;;;7.10;99.90;;;;;;5058656;28;20048;-88
2023/12/09 03:45:58;;;;;;;56.22;25.15;;;7.00;99.90;;;;;;5058513;28;20123;-89
2023/12/09 03:48:24;;;;;;;49.58;23.70;;;7.10;99.90;;;;;;5075219;28;20059;-88
2023/12/09 03:50:50;;;;;;;50.53;21.80;;;7.00;99.90;;;;;;5058974;28;20051;-88
2023/12/09 03:53:16;;;;;;;68.67;23.63;;;7.00;99.90;;;;;;5074756;28;20040;-88
2023/12/09 03:55:42;;;;;;;61.20;25.47;;;7.00;99.90;;;;;;5058655;28;20486;-88
2023/12/09 03:58:08;;;;;;;72.67;26.23;;;7.00;99.90;;;;;;5091680;28;20354;-88
2023/12/09 04:00:36;;;;;;;52.08;22.08;;;7.00;99.90;;;;;;5075098;28;20067;-88
2023/12/09 04:03:03;;;;;;;52.20;22.63;;;7.00;99.90;;;;;;5078282;28;20088;-89
2023/12/09 04:05:29;;;;;;;55.67;24.05;;;7.00;99.90;;;;;;5098435;28;20047;-88
2023/12/09 04:07:55;;;;;;;54.35;24.80;;;7.00;99.90;;;;;;5098755;28;20148;-88
2023/12/09 04:10:21;;;;;;;51.97;23.43;;;7.00;99.90;;;;;;5098205;28;20122;-87
2023/12/09 04:12:46;;;;;;;60.73;23.50;;;7.00;99.90;;;;;;5109013;28;20044;-87
2023/12/09 04:15:12;;;;;;;42.97;20.63;;;7.00;99.90;;;;;;5111560;28;20097;-88
2023/12/09 04:17:38;;;;;;;51.60;24.63;;;7.00;99.90;;;;;;5078620;28;20052;-88
2023/12/09 04:20:08;;;;;;;47.83;20.43;;;7.00;99.90;;;;;;5111578;28;20063;-90
2023/12/09 04:22:37;;;;;;;51.78;21.48;;;7.10;99.90;;;;;;5078397;28;20523;-88
2023/12/09 04:25:04;;;;;;;45.78;21.50;;;7.00;99.90;;;;;;5094766;28;20052;-89
2023/12/09 04:27:32;;;;;;;50.30;20.77;;;7.00;99.90;;;;;;5060857;28;20048;-88
2023/12/09 04:29:58;;;;;;;52.30;23.05;;;7.00;99.90;;;;;;5094769;28;20117;-88
2023/12/09 04:32:23;;;;;;;46.10;24.08;;;7.00;99.90;;;;;;5077268;28;20524;-88
2023/12/09 04:34:49;;;;;;;44.70;20.13;;;7.00;99.90;;;;;;5111940;28;20185;-88
2023/12/09 04:37:15;;;;;;;50.50;19.57;;;7.00;99.90;;;;;;5075559;28;20033;-87
2023/12/09 04:39:41;;;;;;;48.83;20.77;;;6.90;99.90;;;;;;5111569;28;20122;-88
2023/12/09 04:42:06;;;;;;;37.13;18.53;;;7.00;99.90;;;;;;5077353;28;20063;-88
2023/12/09 04:44:32;;;;;;;45.50;19.43;;;7.00;99.90;;;;;;5094518;28;20397;-88
2023/12/09 04:46:58;;;;;;;45.97;19.10;;;7.00;99.90;;;;;;5076357;28;20501;-88
2023/12/09 04:49:23;;;;;;;39.27;19.90;;;7.00;99.90;;;;;;5076923;28;20400;-88
2023/12/09 04:51:49;;;;;;;45.37;18.63;;;7.00;99.90;;;;;;5077210;28;20043;-88
2023/12/09 04:54:17;;;;;;;46.03;20.90;;;7.00;99.90;;;;;;5110569;28;20512;-88
2023/12/09 04:56:43;;;;;;;36.42;19.10;;;7.00;99.90;;;;;;5094481;28;20460;-87
2023/12/09 04:59:09;;;;;;;42.53;18.60;;;6.90;99.90;;;;;;5110872;28;20139;-89
2023/12/09 05:01:37;;;;;;;41.97;21.50;;;7.00;99.90;;;;;;5109061;28;20048;-88
2023/12/09 05:04:03;;;;;;;45.35;21.05;;;7.00;99.90;;;;;;5090836;28;20044;-87
2023/12/09 05:06:28;;;;;;;43.50;21.47;;;7.00;99.90;;;;;;5056081;28;20056;-88
2023/12/09 05:08:54;;;;;;;40.93;20.57;;;6.90;99.90;;;;;;5090858;28;20052;-88
2023/12/09 05:11:20;;;;;;;38.53;20.27;;;7.00;99.90;;;;;;5056750;28;20044;-88
2023/12/09 05:13:45;;;;;;;41.10;20.03;;;7.10;99.90;;;;;;5073573;28;20508;-87
2023/12/09 05:16:11;;;;;;;53.27;21.33;;;7.00;99.90;;;;;;5056312;28;20123;-88
2023/12/09 05:18:37;;;;;;;48.80;20.50;;;7.00;99.90;;;;;;5090329;28;20131;-88
2023/12/09 05:21:04;;;;;;;51.33;19.73;;;7.00;99.90;;;;;;5076814;28;20076;-88
2023/12/09 05:23:30;;;;;;;44.03;18.85;;;7.00;99.90;;;;;;5106948;28;20052;-88
2023/12/09 05:25:56;;;;;;;37.58;18.27;;;6.90;99.90;;;;;;5090462;28;20048;-88
2023/12/09 05:28:22;;;;;;;43.50;18.90;;;7.00;99.90;;;;;;5089642;28;20439;-88
2023/12/09 05:30:48;;;;;;;40.85;18.40;;;5.80;99.90;;;;;;5107473;28;20040;-87
2023/12/09 05:33:14;;;;;;;43.30;17.87;;;7.00;99.90;;;;;;5089592;28;20075;-90
2023/12/09 05:35:39;;;;;;;40.17;17.80;;;7.00;99.90;;;;;;5094900;28;20040;-88
2023/12/09 05:38:05;;;;;;;42.07;19.00;;;6.90;99.90;;;;;;5093509;28;20048;-88
2023/12/09 05:40:31;;;;;;;47.57;19.87;;;7.00;99.90;;;;;;5075816;28;20047;-88
2023/12/09 05:42:57;;;;;;;54.80;19.77;;;6.90;99.90;;;;;;5110418;28;20056;-87
2023/12/09 05:45:22;;;;;;;48.00;19.37;;;6.90;99.90;;;;;;5091122;28;20044;-88
2023/12/09 05:47:48;;;;;;;44.77;18.20;;;7.00;99.90;;;;;;5075968;28;20477;-88
2023/12/09 05:50:14;;;;;;;47.83;19.23;;;6.40;99.90;;;;;;5110232;28;20487;-89
2023/12/09 05:52:42;;;;;;;43.10;18.63;;;7.00;99.90;;;;;;5065310;28;20417;-88
2023/12/09 05:55:07;;;;;;;43.35;18.85;;;7.00;99.90;;;;;;5073093;28;20049;-88
2023/12/09 05:57:33;;;;;;;42.00;19.23;;;7.00;99.90;;;;;;5055420;28;20098;-88
2023/12/09 05:59:59;;;;;;;42.00;18.30;;;6.90;99.90;;;;;;5072992;28;20079;-87
2023/12/09 06:02:24;;;;;;;48.53;20.60;;;7.00;99.90;;;;;;5071155;28;20070;-88
2023/12/09 06:04:50;;;;;;;45.47;20.63;;;6.90;99.90;;;;;;5091149;28;20041;-88
2023/12/09 06:07:16;;;;;;;46.47;20.27;;;7.00;99.90;;;;;;5092599;28;20064;-88
2023/12/09 06:09:42;;;;;;;54.37;20.20;;;6.90;99.90;;;;;;5108061;28;20045;-87
2023/12/09 06:12:07;;;;;;;47.63;18.17;;;6.90;99.90;;;;;;5092979;28;20109;-87
2023/12/09 06:14:33;;;;;;;38.20;18.03;;;6.90;99.90;;;;;;5075434;28;20048;-88
2023/12/09 06:16:59;;;;;;;43.97;18.77;;;6.80;99.90;;;;;;5092762;28;20044;-88
2023/12/09 06:19:25;;;;;;;44.77;19.47;;;7.00;99.90;;;;;;5109143;28;20131;-88
2023/12/09 06:21:50;;;;;;;45.17;20.30;;;6.80;99.90;;;;;;5109955;28;20054;-88
2023/12/09 06:24:16;;;;;;;43.83;17.90;;;6.90;99.90;;;;;;5111707;28;20059;-87
2023/12/09 06:26:44;;;;;;;46.10;21.17;;;6.90;99.90;;;;;;5112308;28;20116;-87
2023/12/09 06:29:13;;;;;;;46.35;19.55;;;6.90;99.90;;;;;;5112883;28;20389;-87
2023/12/09 06:31:39;;;;;;;29.38;17.45;;;6.80;99.90;;;;;;5112284;28;20163;-88
2023/12/09 06:34:07;;;;;;;36.83;18.37;;;6.70;99.90;;;;;;5097678;28;20087;-88
2023/12/09 06:36:32;;;;;;;50.17;20.67;;;6.80;99.90;;;;;;5074944;28;20044;-87
2023/12/09 06:39:03;;;;;;;42.43;19.67;;;6.80;99.90;;;;;;5058964;28;20043;-87
2023/12/09 06:41:31;;;;;;;44.92;20.70;;;6.80;99.90;;;;;;5076084;28;20048;-87
2023/12/09 06:43:57;;;;;;;35.85;18.02;;;6.80;99.90;;;;;;5075570;28;20093;-87
2023/12/09 06:46:23;;;;;;;44.17;18.40;;;6.70;99.90;;;;;;5091686;28;20040;-90
2023/12/09 06:48:49;;;;;;;29.47;17.23;;;6.70;99.90;;;;;;5074262;28;20429;-88
2023/12/09 06:51:16;;;;;;;41.70;18.13;;;6.70;99.90;;;;;;5092173;28;20048;-88
2023/12/09 06:53:42;;;;;;;43.85;19.13;;;6.70;99.90;;;;;;5091601;28;20501;-87
2023/12/09 06:56:17;;;;;;;38.63;16.58;;;6.70;99.90;;;;;;5074963;28;20123;-88
2023/12/09 06:58:42;;;;;;;39.15;17.67;;;6.70;99.90;;;;;;5073332;28;20810;-87
2023/12/09 07:01:08;;;;;;;44.50;18.20;;;6.70;99.90;;;;;;5108958;28;20036;-88
2023/12/09 07:03:37;;;;;;;35.23;17.03;;;6.60;99.90;;;;;;5091392;28;20105;-88
2023/12/09 07:06:04;;;;;;;34.25;16.92;;;6.60;99.90;;;;;;5091241;28;20143;-88
2023/12/09 07:08:32;;;;;;;34.60;15.95;;;5.40;99.90;;;;;;5074346;28;20055;-87
2023/12/09 07:10:59;;;;;;;38.97;16.55;;;6.60;99.90;;;;;;5075050;28;20126;-87
2023/12/09 07:13:25;;;;;;;;;;;7.50;99.90;;;;;;5092255;28;20063;-89
2023/12/09 07:15:50;;;;;;;40.00;16.70;;;6.50;99.90;;;;;;5077832;28;19920;-90
2023/12/09 07:18:19;;;;;;;40.77;16.67;;;6.60;99.90;;;;;;5109197;28;20058;-89
2023/12/09 07:20:44;;;;;;;37.10;16.83;;;5.70;99.90;;;;;;5090093;28;20085;-88
2023/12/09 07:23:10;;;;;;;37.50;18.57;;;6.50;99.90;;;;;;5108847;28;20140;-88
2023/12/09 07:25:36;;;;;;;35.07;16.03;;;6.60;99.90;;;;;;5074780;28;20040;-90
2023/12/09 07:28:01;;;;;;;42.60;17.13;;;6.60;99.90;;;;;;5058155;28;20118;-89
2023/12/09 07:30:29;;;;;;;27.27;15.27;;;6.60;99.90;;;;;;5091160;28;20118;-89
2023/12/09 07:32:55;;;;;;;34.80;15.75;;;6.60;99.90;;;;;;5071679;28;20049;-89
2023/12/09 07:35:21;;;;;;;27.80;12.83;;;6.60;99.90;;;;;;5059136;28;20478;-85
2023/12/09 07:37:46;;;;;;;43.50;17.90;;;6.60;99.90;;;;;;5087882;28;20052;-86
2023/12/09 07:40:12;;;;;;;25.77;13.80;;;6.60;99.90;;;;;;5088219;28;20036;-85
2023/12/09 07:42:38;;;;;;;30.97;14.53;;;6.50;99.90;;;;;;5090468;28;20102;-86
2023/12/09 07:45:04;;;;;;;35.80;13.13;;;6.60;99.90;;;;;;5058327;28;20456;-86
2023/12/09 07:47:30;;;;;;;32.50;12.73;;;6.60;99.90;;;;;;5090980;28;20135;-87
2023/12/09 07:49:56;;;;;;;26.90;12.87;;;6.50;99.90;;;;;;5058177;28;20152;-86
2023/12/09 07:52:21;;;;;;;23.67;12.53;;;6.60;99.90;;;;;;5091611;28;20551;-84
2023/12/09 07:54:47;;;;;;;30.77;12.40;;;6.60;99.90;;;;;;5074035;28;20085;-85
2023/12/09 07:57:14;;;;;;;34.23;12.40;;;6.60;99.90;;;;;;5090672;28;20093;-85
2023/12/09 07:59:39;;;;;;;;;;;6.60;99.90;;;;;;5091461;28;20053;-85
2023/12/09 08:02:05;;;;;;;34.13;13.18;;;6.50;99.90;;;;;;5074022;28;19928;-85
2023/12/09 08:04:31;;;;;;;29.20;12.77;;;6.60;99.90;;;;;;5071212;28;20495;-88
2023/12/09 08:06:57;;;;;;;32.33;12.83;;;6.60;99.90;;;;;;5056326;28;20505;-86
2023/12/09 08:09:22;;;;;;;33.40;13.73;;;6.60;99.90;;;;;;5075153;28;20186;-86
2023/12/09 08:11:48;;;;;;;29.23;12.37;;;6.60;99.90;;;;;;5070841;28;20044;-86
2023/12/09 08:14:14;;;;;;;24.30;11.30;;;6.60;99.90;;;;;;5087613;28;20591;-85
2023/12/09 08:16:39;;;;;;;25.63;12.03;;;6.60;99.90;;;;;;5065781;28;20040;-86
2023/12/09 08:19:05;;;;;;;29.43;10.93;;;6.60;99.90;;;;;;5112392;28;20081;-86
2023/12/09 08:21:37;;;;;;;33.73;11.20;;;6.50;99.90;;;;;;5071904;28;20106;-85
2023/12/09 08:24:03;;;;;;;23.95;10.82;;;6.50;99.90;;;;;;5080452;28;20040;-87
2023/12/09 08:26:29;;;;;;;27.65;12.35;;;6.50;99.90;;;;;;5066656;28;20486;-86
2023/12/09 08:28:55;;;;;;;30.80;10.03;;;6.50;99.90;;;;;;5068930;28;20056;-87
2023/12/09 08:31:21;;;;;;;27.27;10.98;;;6.50;99.90;;;;;;5080517;28;20047;-86
2023/12/09 08:33:47;;;;;;;25.53;10.50;;;6.50;99.90;;;;;;5075316;28;20489;-86
2023/12/09 08:36:12;;;;;;;18.20;8.37;;;6.50;99.90;;;;;;5085177;28;20094;-86
2023/12/09 08:38:38;;;;;;;25.77;10.47;;;6.60;99.90;;;;;;5079157;28;20486;-87
2023/12/09 08:41:04;;;;;;;21.23;8.97;;;6.50;99.90;;;;;;5060445;28;20052;-86
2023/12/09 08:43:30;;;;;;;18.97;8.87;;;6.50;99.90;;;;;;5087054;28;20428;-86
2023/12/09 08:45:55;;;;;;;25.73;9.37;;;6.50;99.90;;;;;;5085154;28;20508;-86
2023/12/09 08:48:21;;;;;;;17.83;8.33;;;6.50;99.90;;;;;;5083191;28;20037;-86
2023/12/09 08:50:47;;;;;;;22.13;8.77;;;6.40;99.90;;;;;;5079377;28;20406;-87
2023/12/09 08:53:13;;;;;;;17.07;8.43;;;6.50;99.90;;;;;;5091625;28;20379;-84
2023/12/09 08:55:38;;;;;;;21.20;7.63;;;7.10;99.90;;;;;;5088110;28;20128;-88
2023/12/09 08:58:04;;;;;;;20.00;8.10;;;6.40;99.90;;;;;;5066695;28;20485;-87
2023/12/09 09:00:30;;;;;;;16.60;8.10;;;6.40;99.90;;;;;;5066425;28;20044;-86
2023/12/09 09:02:56;;;;;;;24.37;8.33;;;6.40;99.90;;;;;;5101582;28;20036;-86
2023/12/09 09:05:25;;;;;;;17.35;8.10;;;6.40;99.90;;;;;;5081597;28;20078;-86
2023/12/09 09:07:51;;;;;;;23.05;7.47;;;6.20;99.90;;;;;;5081837;28;20060;-87
2023/12/09 09:10:19;;;;;;;16.63;6.93;;;6.40;99.90;;;;;;5077607;28;20496;-86
2023/12/09 09:12:46;;;;;;;21.15;7.80;;;6.40;99.90;;;;;;5108104;27;20310;-87
2023/12/09 09:15:12;;;;;;;19.40;6.80;;;6.40;99.90;;;;;;5093817;28;20043;-87
2023/12/09 09:17:41;;;;;;;22.98;7.32;;;6.40;99.90;;;;;;5085446;28;20056;-87
2023/12/09 09:20:07;;;;;;;18.58;7.25;;;6.50;99.90;;;;;;5057079;28;20044;-87
2023/12/09 09:22:34;;;;;;;21.20;7.35;;;6.50;99.90;;;;;;5073470;28;20102;-85
2023/12/09 09:24:59;;;;;;;19.55;6.80;;;6.50;99.90;;;;;;5073464;28;20080;-91
2023/12/09 09:27:28;;;;;;;21.27;6.97;;;6.60;99.90;;;;;;5073649;28;20083;-93
2023/12/09 09:30:00;;;;;;;18.83;7.38;;;6.60;99.90;;;;;;5056657;28;20041;-92
2023/12/09 09:32:26;;;;;;;18.02;6.40;;;6.70;99.90;;;;;;5090039;28;20110;-92
2023/12/09 09:34:52;;;;;;;19.02;6.72;;;6.80;99.90;;;;;;5073097;28;20049;-91
2023/12/09 09:37:22;;;;;;;23.55;5.57;;;6.70;99.90;;;;;;5090926;28;20128;-94
2023/12/09 09:39:51;;;;;;;11.88;6.03;;;6.90;99.90;;;;;;5073834;28;20368;-92
2023/12/09 09:42:32;;;;;;;17.77;6.22;;;6.90;99.90;;;;;;5057736;28;20131;-86
2023/12/09 09:45:29;;;;;;;12.30;5.53;;;6.90;99.90;;;;;;5089641;28;20048;-89
2023/12/09 09:47:55;;;;;;;17.02;5.05;;;6.90;99.90;;;;;;5056589;28;20406;-89
2023/12/09 09:50:25;;;;;;;9.60;4.82;;;6.90;99.90;;;;;;5057228;28;20044;-89
2023/12/09 09:52:52;;;;;;;11.98;5.45;;;6.80;99.90;;;;;;5055613;28;20379;-90
2023/12/09 09:55:18;;;;;;;;;;;6.70;99.90;;;;;;5073422;28;20051;-89
2023/12/09 09:57:44;;;;;;;16.60;5.57;;;6.70;99.90;;;;;;5069404;28;20469;-89
2023/12/09 10:00:15;;;;;;;8.07;4.18;;;6.80;99.90;;;;;;5089277;28;20052;-89
2023/12/09 10:02:45;;;;;;;17.52;5.80;;;6.80;99.90;;;;;;5056541;28;20062;-88
2023/12/09 10:05:20;;;;;;;20.27;6.40;;;6.80;99.90;;;;;;5055942;28;20055;-90
2023/12/09 10:07:48;;;;;;;18.65;5.15;;;6.80;99.90;;;;;;5072441;28;20056;-90
2023/12/09 10:10:16;;;;;;;18.80;6.70;;;6.80;99.90;;;;;;5065971;28;20048;-89
2023/12/09 10:12:44;;;;;;;10.75;4.40;;;6.80;99.90;;;;;;5064785;28;20048;-89
2023/12/09 10:15:11;;;;;;;10.20;4.55;;;6.80;99.90;;;;;;5055901;28;20044;-89
2023/12/09 10:17:37;;;;;;;11.15;5.07;;;6.80;99.90;;;;;;5058895;28;20128;-88
2023/12/09 10:20:14;;;;;;;10.30;3.78;;;6.80;99.90;;;;;;5124883;27;20044;-87
2023/12/09 10:22:41;;;;;;;14.38;5.53;;;6.80;99.90;;;;;;5072594;28;20051;-88
2023/12/09 10:25:07;;;;;;;11.70;4.73;;;6.80;99.90;;;;;;5078182;28;20044;-87
2023/12/09 10:27:33;;;;;;;10.20;4.10;;;6.90;99.90;;;;;;5064435;28;20309;-87
2023/12/09 10:30:00;;;;;;;11.23;4.88;;;6.90;99.90;;;;;;5056303;28;20045;-87
2023/12/09 10:32:26;;;;;;;17.10;4.72;;;6.90;99.90;;;;;;5082135;28;20560;-88
2023/12/09 10:34:52;;;;;;;16.10;4.53;;;6.90;99.90;;;;;;5082288;28;20075;-87
2023/12/09 10:37:18;;;;;;;10.38;4.03;;;7.70;99.90;;;;;;5068090;28;20068;-87
2023/12/09 10:39:45;;;;;;;17.60;4.95;;;7.00;99.90;;;;;;5069147;28;20177;-88
2023/12/09 10:42:11;;;;;;;15.50;5.10;;;7.00;99.90;;;;;;5094907;28;20080;-89
2023/12/09 10:44:37;;;;;;;12.40;4.97;;;7.40;99.90;;;;;;5062454;28;20043;-87
2023/12/09 10:47:04;;;;;;;11.75;4.18;;;7.00;99.90;;;;;;5078327;28;20037;-87
2023/12/09 10:49:33;;;;;;;13.00;4.93;;;7.10;99.90;;;;;;5069559;28;20044;-87
2023/12/09 10:51:59;;;;;;;9.82;4.13;;;7.10;99.90;;;;;;5055519;28;20137;-88
2023/12/09 10:54:25;;;;;;;15.45;5.18;;;7.10;99.90;;;;;;5111575;27;20131;-88
2023/12/09 10:56:51;;;;;;;14.68;4.72;;;7.20;99.90;;;;;;5069528;28;20040;-87
2023/12/09 10:59:19;;;;;;;10.25;4.53;;;7.20;99.90;;;;;;5091345;28;20043;-88
2023/12/09 11:01:45;;;;;;;14.10;4.72;;;7.20;99.90;;;;;;5078715;28;20056;-87
2023/12/09 11:04:12;;;;;;;;;;;7.30;99.90;;;;;;5056884;28;20048;-87
2023/12/09 11:06:39;;;;;;;11.93;4.68;;;7.20;99.90;;;;;;5074392;28;20006;-88
2023/12/09 11:09:07;;;;;;;11.63;4.63;;;7.10;99.90;;;;;;5102243;28;20058;-86
2023/12/09 11:11:34;;;;;;;8.55;4.53;;;7.50;99.90;;;;;;5085414;28;20127;-87
2023/12/09 11:14:00;;;;;;;14.80;5.70;;;7.50;99.90;;;;;;5074835;28;20048;-90
2023/12/09 11:16:28;;;;;;;7.83;3.80;;;7.90;99.90;;;;;;5077731;28;20040;-87
2023/12/09 11:18:54;;;;;;;8.20;4.55;;;7.40;99.90;;;;;;5065956;28;20065;-87
2023/12/09 11:21:25;;;;;;;14.38;4.25;;;7.40;99.90;;;;;;5061247;28;20127;-87
2023/12/09 11:23:53;;;;;;;8.23;3.58;;;7.40;99.90;;;;;;5083090;28;20058;-88
2023/12/09 11:26:33;;;;;;;10.25;3.83;;;7.40;99.90;;;;;;5063334;28;20045;-87
2023/12/09 11:29:07;;;;;;;10.05;4.03;;;7.40;99.90;;;;;;5063344;28;20052;-88
2023/12/09 11:31:40;;;;;;;12.70;4.05;;;7.40;99.90;;;;;;5081093;28;20052;-87
2023/12/09 11:34:08;;;;;;;9.23;3.63;;;7.30;99.90;;;;;;5057731;28;20044;-88
2023/12/09 11:36:35;;;;;;;9.10;3.47;;;7.30;99.90;;;;;;5063608;28;20558;-87
2023/12/09 11:39:04;;;;;;;13.13;4.22;;;7.30;99.90;;;;;;5084386;28;20497;-89
2023/12/09 11:41:32;;;;;;;9.80;4.47;;;7.40;99.90;;;;;;5082213;28;20048;-88
2023/12/09 11:44:02;;;;;;;13.93;5.43;;;7.40;99.90;;;;;;5078147;28;20394;-88
2023/12/09 11:46:30;;;;;;;7.88;4.43;;;7.40;99.90;;;;;;5079111;28;20036;-88
2023/12/09 11:48:57;;;;;;;9.25;4.10;;;7.40;99.90;;;;;;5083419;28;20036;-88
2023/12/09 11:51:29;;;;;;;9.88;4.00;;;7.40;99.90;;;;;;5074938;28;20491;-88
2023/12/09 11:53:56;;;;;;;11.23;4.32;;;7.40;99.90;;;;;;5056758;28;20064;-87
2023/12/09 11:56:25;;;;;;;9.57;3.35;;;7.50;99.90;;;;;;5063275;28;20119;-88
2023/12/09 11:58:51;;;;;;;9.45;5.13;;;7.40;99.90;;;;;;5098172;28;20131;-88
2023/12/09 12:01:18;;;;;;;7.80;4.05;;;7.40;99.90;;;;;;5087511;28;20078;-87
2023/12/09 12:03:48;;;;;;;15.35;4.15;;;7.40;99.90;;;;;;5076826;28;20063;-87
2023/12/09 12:06:19;;;;;;;13.35;3.45;;;7.40;99.90;;;;;;5077342;28;20044;-87
2023/12/09 12:08:47;;;;;;;9.32;3.38;;;7.40;99.90;;;;;;5076335;28;20079;-87
2023/12/09 12:11:13;;;;;;;11.57;4.75;;;7.40;99.90;;;;;;5094821;28;20047;-87
2023/12/09 12:13:40;;;;;;;8.85;3.28;;;7.50;99.90;;;;;;5077301;28;20520;-87
2023/12/09 12:16:07;;;;;;;15.10;3.92;;;7.40;99.90;;;;;;5078245;28;20069;-87
2023/12/09 12:18:34;;;;;;;10.57;3.63;;;7.40;99.90;;;;;;5091974;28;20044;-87
2023/12/09 12:21:00;;;;;;;12.13;3.60;;;7.40;99.90;;;;;;5075859;28;20243;-87
2023/12/09 12:23:26;;;;;;;11.10;3.57;;;7.40;99.90;;;;;;5076510;28;20522;-87
2023/12/09 12:25:55;;;;;;;11.73;4.80;;;7.40;99.90;;;;;;5078119;28;20036;-87
2023/12/09 12:28:22;;;;;;;13.55;4.32;;;7.40;99.90;;;;;;5075345;28;20048;-87
2023/12/09 12:30:55;;;;;;;12.93;4.25;;;7.40;99.90;;;;;;5061428;28;20048;-87
2023/12/09 12:33:22;;;;;;;8.50;2.97;;;8.30;99.90;;;;;;5091638;28;20076;-87
2023/12/09 12:35:52;;;;;;;13.13;3.75;;;7.40;99.90;;;;;;5094900;28;20055;-87
2023/12/09 12:38:20;;;;;;;9.77;3.75;;;7.60;99.90;;;;;;5075015;28;20102;-87
2023/12/09 12:40:46;;;;;;;9.35;4.38;;;7.50;99.90;;;;;;5094649;28;20162;-87